Time;durP1;ratioP1;P1;durP2;ratioP2;P2;SDS_P1;SDS_P2;PMS_P1;PMS_P2;Temp;Humidity;BMP_temperature;BMP_pressure;BME280_temperature;BME280_humidity;BME280_pressure;Samples;Min_cycle;Max_cycle;Signal;HPM_P1;HPM_P2
2023/11/16 15:32:20;;;;;;;;;;;4.70;99.90;;;;;;5163244;27;19926;-93
2023/11/16 15:34:46;;;;;;;;;;;4.60;99.90;;;;;;5155654;27;19998;-94
2023/11/16 15:37:15;;;;;;;;;;;4.70;99.90;;;;;;5122168;27;19960;-94
2023/11/16 15:39:41;;;;;;;;;;;4.80;99.90;;;;;;5139646;27;19987;-93
2023/11/16 15:42:15;;;;;;;;;;;4.80;99.90;;;;;;5114838;28;20402;-95
2023/11/16 15:44:41;;;;;;;;;;;4.90;99.90;;;;;;5135502;27;19911;-94
2023/11/16 15:47:06;;;;;;;;;;;5.00;99.90;;;;;;5137031;27;20294;-94
2023/11/16 15:49:32;;;;;;;;;;;5.10;99.90;;;;;;5134335;27;19911;-92
2023/11/16 15:51:57;;;;;;;;;;;5.10;99.90;;;;;;5153380;27;20352;-95
2023/11/16 15:54:23;;;;;;;;;;;5.20;99.90;;;;;;5135033;27;19908;-95
2023/11/16 15:56:51;;;;;;;;;;;5.30;99.90;;;;;;5130258;27;19915;-93
2023/11/16 15:59:16;;;;;;;;;;;5.30;99.90;;;;;;5138383;27;19925;-94
2023/11/16 16:01:43;;;;;;;;;;;5.30;99.90;;;;;;5143320;27;19912;-93
2023/11/16 16:04:08;;;;;;;;;;;5.40;99.90;;;;;;5135961;27;19979;-93
2023/11/16 16:06:34;;;;;;;;;;;5.40;99.90;;;;;;5146588;27;19907;-92
2023/11/16 16:08:59;;;;;;;;;;;5.40;99.90;;;;;;5132853;27;20304;-92
2023/11/16 16:11:27;;;;;;;;;;;5.40;99.90;;;;;;5133499;27;19960;-94
2023/11/16 16:13:53;;;;;;;;;;;5.40;99.90;;;;;;5150880;27;19907;-93
2023/11/16 16:16:19;;;;;;;;;;;5.40;99.90;;;;;;5155265;27;19960;-94
2023/11/16 16:18:45;;;;;;;;;;;5.40;99.90;;;;;;5155794;27;20354;-93
2023/11/16 16:21:12;;;;;;;;;;;5.40;99.90;;;;;;5154882;27;19911;-91
2023/11/16 16:23:39;;;;;;;;;;;5.40;99.90;;;;;;5125938;27;19930;-92
2023/11/16 16:26:06;;;;;;;;;;;5.40;99.90;;;;;;5151227;27;20253;-93
2023/11/16 16:28:32;;;;;;;;;;;5.40;99.90;;;;;;5130304;28;19960;-93
2023/11/16 16:31:02;;;;;;;;;;;5.40;99.90;;;;;;5113481;28;19931;-93
2023/11/16 16:33:28;;;;;;;;;;;5.40;99.90;;;;;;5138174;27;19918;-94
2023/11/16 16:35:55;;;;;;;;;;;5.40;99.90;;;;;;5147896;27;19915;-92
2023/11/16 16:38:20;;;;;;;;;;;5.40;99.90;;;;;;5114116;28;20268;-91
2023/11/16 16:40:46;;;;;;;;;;;5.40;99.90;;;;;;5109101;28;19912;-93
2023/11/16 16:43:12;;;;;;;;;;;5.40;99.90;;;;;;5112301;28;19908;-91
2023/11/16 16:45:42;;;;;;;;;;;5.40;99.90;;;;;;5127399;27;19916;-94
2023/11/16 16:48:08;;;;;;;;;;;5.40;99.90;;;;;;5137779;27;19931;-93
2023/11/16 16:50:34;;;;;;;;;;;5.40;99.90;;;;;;5122401;27;20360;-93
2023/11/16 16:53:00;;;;;;;;;;;5.40;99.90;;;;;;5116369;28;19915;-91
2023/11/16 16:55:25;;;;;;;;;;;5.30;99.90;;;;;;5116453;28;19957;-91
2023/11/16 16:57:51;;;;;;;;;;;5.30;99.90;;;;;;5116461;28;20286;-91
2023/11/16 17:00:17;;;;;;;;;;;5.30;99.90;;;;;;5115054;28;19915;-92
2023/11/16 17:02:42;;;;;;;;;;;5.30;99.90;;;;;;5119172;27;19922;-92
2023/11/16 17:05:11;;;;;;;;;;;5.30;99.90;;;;;;5133797;27;20034;-92
2023/11/16 17:07:39;;;;;;;;;;;5.20;99.90;;;;;;5114431;28;19911;-94
2023/11/16 17:10:09;;;;;;;;;;;5.30;99.90;;;;;;5122677;27;19912;-96
2023/11/16 17:12:36;;;;;;;;;;;5.20;99.90;;;;;;5137244;27;20355;-93
2023/11/16 17:15:02;;;;;;;;;;;5.30;99.90;;;;;;5131021;27;19918;-95
2023/11/16 17:17:27;;;;;;;;;;;5.30;99.90;;;;;;5115353;27;19990;-93
2023/11/16 17:19:53;;;;;;;;;;;5.20;99.90;;;;;;5106254;27;20069;-94
2023/11/16 17:22:19;;;;;;;;;;;5.20;99.90;;;;;;5118959;27;19922;-94
2023/11/16 17:24:44;;;;;;;;;;;5.20;99.90;;;;;;5122205;27;19912;-93
2023/11/16 17:27:11;;;;;;;;;;;5.20;99.90;;;;;;5112720;27;20360;-92
2023/11/16 17:29:37;;;;;;;;;;;5.20;99.90;;;;;;5109729;27;20355;-92
2023/11/16 17:32:03;;;;;;;;;;;5.20;99.90;;;;;;5122048;27;19923;-92
2023/11/16 17:34:31;;;;;;;;;;;5.20;99.90;;;;;;5115418;28;19922;-92
2023/11/16 17:36:57;;;;;;;;;;;5.20;99.90;;;;;;5103358;28;19965;-93
2023/11/16 17:39:23;;;;;;;;;;;5.10;99.90;;;;;;5116813;28;19908;-93
2023/11/16 17:41:48;;;;;;;;;;;5.20;99.90;;;;;;5115417;28;20535;-92
2023/11/16 17:44:14;;;;;;;;;;;5.20;99.90;;;;;;5116492;27;19919;-93
2023/11/16 17:46:39;;;;;;;;;;;5.20;99.90;;;;;;5116013;28;19931;-93
2023/11/16 17:49:05;;;;;;;;;;;5.10;99.90;;;;;;5114262;28;19920;-93
2023/11/16 17:51:34;;;;;;;;;;;5.10;99.90;;;;;;5126481;27;19911;-94
2023/11/16 17:54:01;;;;;;;;;;;5.20;99.90;;;;;;5135588;27;19908;-92
2023/11/16 17:56:28;;;;;;;;;;;5.20;99.90;;;;;;5108279;27;19919;-94
2023/11/16 17:58:54;;;;;;;;;;;5.10;99.90;;;;;;5115183;27;20000;-94
2023/11/16 18:01:20;;;;;;;;;;;5.20;99.90;;;;;;5116832;27;19920;-92
2023/11/16 18:03:47;;;;;;;;;;;5.20;99.90;;;;;;5114293;28;19912;-92
2023/11/16 18:06:12;;;;;;;;;;;5.20;99.90;;;;;;5130114;27;19912;-92
2023/11/16 18:08:38;;;;;;;;;;;5.20;99.90;;;;;;5132143;27;20356;-93
2023/11/16 18:11:04;;;;;;;;;;;5.10;99.90;;;;;;5114722;28;19914;-93
2023/11/16 18:13:30;;;;;;;;;;;5.10;99.90;;;;;;5111741;28;19955;-92
2023/11/16 18:15:56;;;;;;;;;;;5.20;99.90;;;;;;5132303;27;19919;-91
2023/11/16 18:18:22;;;;;;;;;;;5.20;99.90;;;;;;5125483;27;20343;-92
2023/11/16 18:20:48;;;;;;;;;;;5.10;99.90;;;;;;5095906;27;19920;-92
2023/11/16 18:23:14;;;;;;;;;;;5.20;99.90;;;;;;5113424;27;20356;-93
2023/11/16 18:25:40;;;;;;;;;;;5.10;99.90;;;;;;5121674;27;19919;-93
2023/11/16 18:28:08;;;;;;;;;;;5.10;99.90;;;;;;5112376;27;20110;-92
2023/11/16 18:30:36;;;;;;;;;;;5.10;99.90;;;;;;5118929;27;19924;-92
2023/11/16 18:33:02;;;;;;;;;;;5.10;99.90;;;;;;5114530;28;20016;-92
2023/11/16 18:35:29;;;;;;;;;;;5.10;99.90;;;;;;5113003;27;19920;-92
2023/11/16 18:37:55;;;;;;;;;;;5.10;99.90;;;;;;5119585;27;19912;-93
2023/11/16 18:40:21;;;;;;;;;;;5.10;99.90;;;;;;5113555;27;19922;-92
2023/11/16 18:42:51;;;;;;;;;;;5.10;99.90;;;;;;5115232;28;19947;-92
2023/11/16 18:45:16;;;;;;;;;;;5.10;99.90;;;;;;5113534;28;19924;-93
2023/11/16 18:47:42;;;;;;;;;;;5.10;99.90;;;;;;5114416;28;19908;-93
2023/11/16 18:50:08;;;;;;;;;;;5.10;99.90;;;;;;5115112;28;19908;-93
2023/11/16 18:52:33;;;;;;;;;;;5.10;99.90;;;;;;5113612;28;19919;-91
2023/11/16 18:54:59;;;;;;;;;;;5.10;99.90;;;;;;5113898;28;20415;-91
2023/11/16 18:57:25;;;;;;;;;;;5.10;99.90;;;;;;5115186;28;20371;-91
2023/11/16 18:59:51;;;;;;;;;;;5.10;99.90;;;;;;5114723;28;19919;-91
2023/11/16 19:02:17;;;;;;;;;;;5.10;99.90;;;;;;5103859;28;19912;-92
2023/11/16 19:04:43;;;;;;;;;;;5.10;99.90;;;;;;5108625;28;19915;-90
2023/11/16 19:07:09;;;;;;;;;;;5.10;99.90;;;;;;5115382;28;19916;-91
2023/11/16 19:09:34;;;;;;;;;;;5.00;99.90;;;;;;5115995;28;19907;-91
2023/11/16 19:12:02;;;;;;;;;;;5.00;99.90;;;;;;5114706;28;20012;-90
2023/11/16 19:14:29;;;;;;;;;;;5.00;99.90;;;;;;5114584;28;19919;-91
2023/11/16 19:16:55;;;;;;;;;;;5.00;99.90;;;;;;5114403;28;19951;-90
2023/11/16 19:19:21;;;;;;;;;;;5.00;99.90;;;;;;5114036;28;19961;-91
2023/11/16 19:21:48;;;;;;;;;;;5.00;99.90;;;;;;5115327;28;19916;-92
2023/11/16 19:24:15;;;;;;;;;;;5.00;99.90;;;;;;5114105;28;19911;-90
2023/11/16 19:26:45;;;;;;;;;;;5.00;99.90;;;;;;5113699;28;19908;-90
2023/11/16 19:29:13;;;;;;;;;;;5.00;99.90;;;;;;5113616;28;20385;-90
2023/11/16 19:31:39;;;;;;;;;;;5.00;99.90;;;;;;5113954;28;20010;-90
2023/11/16 19:34:04;;;;;;;;;;;5.00;99.90;;;;;;5116022;28;19954;-91
2023/11/16 19:36:30;;;;;;;;;;;5.00;99.90;;;;;;5114070;28;20271;-91
2023/11/16 19:38:57;;;;;;;;;;;5.00;99.90;;;;;;5113990;28;20344;-93
2023/11/16 19:41:22;;;;;;;;;;;5.00;99.90;;;;;;5111854;28;19963;-91
2023/11/16 19:43:48;;;;;;;;;;;5.00;99.90;;;;;;5127318;28;19920;-92
2023/11/16 19:46:14;;;;;;;;;;;5.00;99.90;;;;;;5113091;28;20267;-91
2023/11/16 19:48:42;;;;;;;;;;;5.00;99.90;;;;;;5113336;28;19931;-92
2023/11/16 19:51:11;;;;;;;;;;;5.00;99.90;;;;;;5114886;28;19982;-91
2023/11/16 19:53:38;;;;;;;;;;;5.00;99.90;;;;;;5113601;28;19953;-90
2023/11/16 19:56:04;;;;;;;;;;;5.00;99.90;;;;;;5113757;28;19908;-91
2023/11/16 19:58:29;;;;;;;;;;;5.00;99.90;;;;;;5113411;28;19963;-92
2023/11/16 20:00:57;;;;;;;;;;;5.00;99.90;;;;;;5114838;28;19919;-92
2023/11/16 20:03:22;;;;;;;;;;;5.00;99.90;;;;;;5107724;28;20329;-93
2023/11/16 20:05:48;;;;;;;;;;;5.00;99.90;;;;;;5113358;28;19908;-91
